Terminal Aerodrome Forecast
Issued by NWS Charleston, WV

Current Version | Previous Version | Graphics & Text | Print | Product List | Glossary On
Versions: 1 2 3 4 5 6 7 8 9 10 11 12 13 14 15 16 17 18 19 20 21 22 23 24
000
FTUS41 KRLX 211307 AAA
TAFHTS
TAF AMD
KHTS 211307Z 2113/2212 VRB03KT P6SM SCT005 OVC025
      TEMPO 2113/2115 2SM BR BKN005
     FM211500 VRB03KT P6SM OVC030
     FM220400 00000KT P6SM SCT025
     FM220900 00000KT P6SM FEW150=

USA.gov is the U.S. government's official web portal to all federal, state and local government web resources and services.